sensor_id;sensor_type;location;lat;lon;timestamp;pressure;altitude;pressure_sealevel;temperature;humidity
66524;BME280;53350;52.210;5.160;2022-08-25T15:39:14;101324.53;;;30.71;37.17
66524;BME280;53350;52.210;5.160;2022-08-25T15:41:40;101322.03;;;30.79;36.26
66524;BME280;53350;52.210;5.160;2022-08-25T15:44:07;101320.94;;;31.01;35.48
66524;BME280;53350;52.210;5.160;2022-08-25T15:46:35;101312.38;;;31.27;34.42
66524;BME280;53350;52.210;5.160;2022-08-25T15:49:03;101318.31;;;31.59;35.03
66524;BME280;53350;52.210;5.160;2022-08-25T15:51:30;101310.81;;;31.82;35.63
66524;BME280;53350;52.210;5.160;2022-08-25T15:53:56;101307.19;;;32.01;35.43
66524;BME280;53350;52.210;5.160;2022-08-25T15:56:24;101307.59;;;32.16;35.67
66524;BME280;53350;52.210;5.160;2022-08-25T15:58:51;101305.69;;;32.26;35.42
66524;BME280;53350;52.210;5.160;2022-08-25T16:01:20;101304.09;;;32.33;35.00
66524;BME280;53350;52.210;5.160;2022-08-25T16:03:47;101311.50;;;32.39;34.73
66524;BME280;53350;52.210;5.160;2022-08-25T16:06:14;101309.38;;;32.43;34.78
66524;BME280;53350;52.210;5.160;2022-08-25T16:08:41;101302.72;;;32.47;34.76
66524;BME280;53350;52.210;5.160;2022-08-25T16:11:15;101307.78;;;32.50;34.83
66524;BME280;53350;52.210;5.160;2022-08-25T16:13:43;101312.66;;;32.55;35.33
66524;BME280;53350;52.210;5.160;2022-08-25T16:16:10;101309.69;;;32.58;35.32
66524;BME280;53350;52.210;5.160;2022-08-25T16:18:37;101311.22;;;32.61;34.95
66524;BME280;53350;52.210;5.160;2022-08-25T16:21:08;101302.50;;;32.58;35.18
66524;BME280;53350;52.210;5.160;2022-08-25T16:23:34;101305.19;;;32.58;36.03
66524;BME280;53350;52.210;5.160;2022-08-25T16:26:02;101312.09;;;32.51;35.43
66524;BME280;53350;52.210;5.160;2022-08-25T16:28:29;101311.59;;;32.48;35.81
66524;BME280;53350;52.210;5.160;2022-08-25T16:30:57;101309.06;;;32.46;35.68
66524;BME280;53350;52.210;5.160;2022-08-25T16:33:23;101317.97;;;32.37;35.89
66524;BME280;53350;52.210;5.160;2022-08-25T16:35:50;101318.72;;;32.29;36.19
66524;BME280;53350;52.210;5.160;2022-08-25T16:38:16;101311.78;;;32.18;36.51
66524;BME280;53350;52.210;5.160;2022-08-25T16:40:45;101316.13;;;32.10;36.66
66524;BME280;53350;52.210;5.160;2022-08-25T16:43:11;101325.84;;;32.01;37.08
66524;BME280;53350;52.210;5.160;2022-08-25T16:45:38;101324.75;;;31.94;37.48
66524;BME280;53350;52.210;5.160;2022-08-25T16:48:05;101321.00;;;31.86;38.29
66524;BME280;53350;52.210;5.160;2022-08-25T16:50:32;101328.69;;;31.62;39.11
66524;BME280;53350;52.210;5.160;2022-08-25T16:52:58;101323.09;;;31.45;40.33
66524;BME280;53350;52.210;5.160;2022-08-25T16:55:45;101312.63;;;31.24;40.66
66524;BME280;53350;52.210;5.160;2022-08-25T16:58:11;101331.25;;;31.24;41.77
66524;BME280;53350;52.210;5.160;2022-08-25T17:00:38;101326.25;;;31.11;42.73
66524;BME280;53350;52.210;5.160;2022-08-25T17:03:06;101336.16;;;30.99;42.84
66524;BME280;53350;52.210;5.160;2022-08-25T17:05:39;101341.78;;;30.86;43.64
66524;BME280;53350;52.210;5.160;2022-08-25T17:08:06;101334.75;;;30.76;43.83
66524;BME280;53350;52.210;5.160;2022-08-25T17:10:50;101339.38;;;30.64;44.35
66524;BME280;53350;52.210;5.160;2022-08-25T17:13:16;101338.50;;;30.44;44.86
66524;BME280;53350;52.210;5.160;2022-08-25T17:15:45;101334.22;;;30.22;45.55
66524;BME280;53350;52.210;5.160;2022-08-25T17:18:14;101335.88;;;30.13;46.02
66524;BME280;53350;52.210;5.160;2022-08-25T17:20:41;101339.91;;;30.07;46.72
66524;BME280;53350;52.210;5.160;2022-08-25T17:23:09;101334.41;;;29.99;46.52
66524;BME280;53350;52.210;5.160;2022-08-25T17:25:36;101332.44;;;29.91;46.60
66524;BME280;53350;52.210;5.160;2022-08-25T17:28:04;101332.84;;;29.87;46.89
66524;BME280;53350;52.210;5.160;2022-08-25T17:30:30;101326.81;;;29.85;47.04
66524;BME280;53350;52.210;5.160;2022-08-25T17:32:57;101325.13;;;29.83;47.24
66524;BME280;53350;52.210;5.160;2022-08-25T17:35:25;101328.88;;;29.81;46.69
66524;BME280;53350;52.210;5.160;2022-08-25T17:37:52;101330.94;;;29.77;46.47
66524;BME280;53350;52.210;5.160;2022-08-25T17:40:18;101328.56;;;29.74;46.80
66524;BME280;53350;52.210;5.160;2022-08-25T17:42:45;101325.34;;;29.71;47.00
66524;BME280;53350;52.210;5.160;2022-08-25T17:45:12;101330.31;;;29.64;47.12
66524;BME280;53350;52.210;5.160;2022-08-25T17:47:38;101341.34;;;29.59;47.74
66524;BME280;53350;52.210;5.160;2022-08-25T17:50:05;101333.06;;;29.53;47.55
66524;BME280;53350;52.210;5.160;2022-08-25T17:52:33;101333.44;;;29.48;47.83
66524;BME280;53350;52.210;5.160;2022-08-25T17:54:59;101344.47;;;29.43;47.93
66524;BME280;53350;52.210;5.160;2022-08-25T17:57:26;101350.03;;;29.40;48.37
66524;BME280;53350;52.210;5.160;2022-08-25T17:59:52;101347.38;;;29.40;48.42
66524;BME280;53350;52.210;5.160;2022-08-25T18:02:19;101344.84;;;29.39;48.42
66524;BME280;53350;52.210;5.160;2022-08-25T18:04:45;101346.22;;;29.33;48.59
66524;BME280;53350;52.210;5.160;2022-08-25T18:07:11;101359.28;;;29.25;49.50
66524;BME280;53350;52.210;5.160;2022-08-25T18:09:39;101358.47;;;29.13;49.40
66524;BME280;53350;52.210;5.160;2022-08-25T18:12:06;101360.06;;;29.04;49.14
66524;BME280;53350;52.210;5.160;2022-08-25T18:14:32;101370.19;;;28.99;50.47
66524;BME280;53350;52.210;5.160;2022-08-25T18:16:58;101371.66;;;28.92;51.31
66524;BME280;53350;52.210;5.160;2022-08-25T18:19:27;101373.13;;;28.85;51.99
66524;BME280;53350;52.210;5.160;2022-08-25T18:21:54;101367.75;;;28.75;52.29
66524;BME280;53350;52.210;5.160;2022-08-25T18:24:20;101366.81;;;28.65;52.29
66524;BME280;53350;52.210;5.160;2022-08-25T18:26:48;101376.31;;;28.56;52.85
66524;BME280;53350;52.210;5.160;2022-08-25T18:29:14;101364.75;;;28.45;52.94
66524;BME280;53350;52.210;5.160;2022-08-25T18:31:41;101367.09;;;28.39;53.46
66524;BME280;53350;52.210;5.160;2022-08-25T18:34:08;101368.75;;;28.28;54.18
66524;BME280;53350;52.210;5.160;2022-08-25T18:36:35;101368.78;;;28.17;54.52
66524;BME280;53350;52.210;5.160;2022-08-25T18:39:03;101365.50;;;28.02;55.67
66524;BME280;53350;52.210;5.160;2022-08-25T18:41:48;101372.69;;;27.89;55.86
66524;BME280;53350;52.210;5.160;2022-08-25T18:44:15;101381.25;;;27.81;55.57
66524;BME280;53350;52.210;5.160;2022-08-25T18:46:41;101375.09;;;27.69;56.84
66524;BME280;53350;52.210;5.160;2022-08-25T18:49:08;101392.84;;;27.56;57.11
66524;BME280;53350;52.210;5.160;2022-08-25T18:51:35;101388.63;;;27.42;57.62
66524;BME280;53350;52.210;5.160;2022-08-25T18:54:01;101405.34;;;27.30;58.90
66524;BME280;53350;52.210;5.160;2022-08-25T18:56:28;101415.06;;;27.18;58.67
66524;BME280;53350;52.210;5.160;2022-08-25T18:58:56;101409.09;;;27.03;59.05
66524;BME280;53350;52.210;5.160;2022-08-25T19:01:23;101405.59;;;27.02;60.27
66524;BME280;53350;52.210;5.160;2022-08-25T19:03:49;101408.47;;;26.99;60.12
66524;BME280;53350;52.210;5.160;2022-08-25T19:06:17;101422.66;;;26.98;59.94
66524;BME280;53350;52.210;5.160;2022-08-25T19:08:44;101422.66;;;26.98;59.05
66524;BME280;53350;52.210;5.160;2022-08-25T19:11:11;101426.47;;;26.94;60.32
66524;BME280;53350;52.210;5.160;2022-08-25T19:13:38;101428.72;;;26.87;60.46
66524;BME280;53350;52.210;5.160;2022-08-25T19:16:10;101425.34;;;26.85;59.83
66524;BME280;53350;52.210;5.160;2022-08-25T19:18:37;101434.44;;;26.81;60.59
66524;BME280;53350;52.210;5.160;2022-08-25T19:21:05;101430.22;;;26.79;60.67
66524;BME280;53350;52.210;5.160;2022-08-25T19:23:31;101432.25;;;26.75;60.54
66524;BME280;53350;52.210;5.160;2022-08-25T19:26:03;101435.38;;;26.67;60.04
66524;BME280;53350;52.210;5.160;2022-08-25T19:28:30;101435.09;;;26.59;59.85
66524;BME280;53350;52.210;5.160;2022-08-25T19:30:56;101438.28;;;26.51;59.75
66524;BME280;53350;52.210;5.160;2022-08-25T19:33:24;101436.78;;;26.47;59.37
66524;BME280;53350;52.210;5.160;2022-08-25T19:35:51;101442.53;;;26.41;59.16
66524;BME280;53350;52.210;5.160;2022-08-25T19:38:20;101447.38;;;26.34;59.00
66524;BME280;53350;52.210;5.160;2022-08-25T19:40:49;101442.63;;;26.27;59.16
66524;BME280;53350;52.210;5.160;2022-08-25T19:43:15;101452.69;;;26.22;59.40
66524;BME280;53350;52.210;5.160;2022-08-25T19:45:43;101450.34;;;26.17;59.57
66524;BME280;53350;52.210;5.160;2022-08-25T19:48:10;101456.06;;;26.11;59.53
66524;BME280;53350;52.210;5.160;2022-08-25T19:50:38;101451.41;;;26.01;60.05
66524;BME280;53350;52.210;5.160;2022-08-25T19:53:05;101460.88;;;25.91;60.41
66524;BME280;53350;52.210;5.160;2022-08-25T19:55:31;101454.59;;;25.79;61.08
66524;BME280;53350;52.210;5.160;2022-08-25T19:57:59;101466.09;;;25.65;60.98
66524;BME280;53350;52.210;5.160;2022-08-25T20:00:28;101473.13;;;25.52;61.85
66524;BME280;53350;52.210;5.160;2022-08-25T20:02:54;101474.38;;;25.46;62.48
66524;BME280;53350;52.210;5.160;2022-08-25T20:05:22;101465.91;;;25.41;62.45
66524;BME280;53350;52.210;5.160;2022-08-25T20:07:50;101469.88;;;25.34;62.69
66524;BME280;53350;52.210;5.160;2022-08-25T20:10:18;101478.16;;;25.28;63.06
66524;BME280;53350;52.210;5.160;2022-08-25T20:12:45;101471.75;;;25.05;64.22
66524;BME280;53350;52.210;5.160;2022-08-25T20:15:13;101475.69;;;25.12;63.03
66524;BME280;53350;52.210;5.160;2022-08-25T20:17:39;101478.81;;;25.04;63.83
66524;BME280;53350;52.210;5.160;2022-08-25T20:20:08;101479.28;;;24.96;63.79
66524;BME280;53350;52.210;5.160;2022-08-25T20:22:35;101484.25;;;24.87;64.43
66524;BME280;53350;52.210;5.160;2022-08-25T20:25:06;101493.13;;;24.86;64.21
66524;BME280;53350;52.210;5.160;2022-08-25T20:27:34;101492.28;;;24.85;64.62
66524;BME280;53350;52.210;5.160;2022-08-25T20:30:05;101497.75;;;24.82;64.62
66524;BME280;53350;52.210;5.160;2022-08-25T20:32:32;101494.75;;;24.74;64.72
66524;BME280;53350;52.210;5.160;2022-08-25T20:34:59;101504.44;;;24.73;64.79
66524;BME280;53350;52.210;5.160;2022-08-25T20:37:26;101502.91;;;24.69;64.97
66524;BME280;53350;52.210;5.160;2022-08-25T20:39:53;101502.38;;;24.64;65.05
66524;BME280;53350;52.210;5.160;2022-08-25T20:42:21;101508.47;;;24.64;64.86
66524;BME280;53350;52.210;5.160;2022-08-25T20:44:47;101516.38;;;24.64;64.71
66524;BME280;53350;52.210;5.160;2022-08-25T20:47:15;101517.22;;;24.65;64.65
66524;BME280;53350;52.210;5.160;2022-08-25T20:49:44;101517.31;;;24.63;64.54
66524;BME280;53350;52.210;5.160;2022-08-25T20:52:12;101519.38;;;24.58;64.64
66524;BME280;53350;52.210;5.160;2022-08-25T20:54:39;101523.41;;;24.50;64.78
66524;BME280;53350;52.210;5.160;2022-08-25T20:57:08;101528.38;;;24.40;65.17
66524;BME280;53350;52.210;5.160;2022-08-25T20:59:36;101526.28;;;24.30;65.09
66524;BME280;53350;52.210;5.160;2022-08-25T21:02:02;101526.47;;;24.27;65.48
66524;BME280;53350;52.210;5.160;2022-08-25T21:04:29;101521.28;;;24.26;65.25
66524;BME280;53350;52.210;5.160;2022-08-25T21:06:56;101526.53;;;24.26;65.30
66524;BME280;53350;52.210;5.160;2022-08-25T21:09:25;101529.25;;;24.24;65.67
66524;BME280;53350;52.210;5.160;2022-08-25T21:11:53;101528.44;;;24.24;65.69
66524;BME280;53350;52.210;5.160;2022-08-25T21:14:21;101530.22;;;24.23;65.34
66524;BME280;53350;52.210;5.160;2022-08-25T21:16:49;101529.34;;;24.23;65.85
66524;BME280;53350;52.210;5.160;2022-08-25T21:19:18;101531.34;;;24.19;65.88
66524;BME280;53350;52.210;5.160;2022-08-25T21:21:46;101543.06;;;24.13;65.95
66524;BME280;53350;52.210;5.160;2022-08-25T21:24:13;101540.53;;;24.12;66.23
66524;BME280;53350;52.210;5.160;2022-08-25T21:26:39;101537.94;;;23.96;66.90
66524;BME280;53350;52.210;5.160;2022-08-25T21:29:07;101551.63;;;23.87;65.99
66524;BME280;53350;52.210;5.160;2022-08-25T21:31:34;101548.47;;;23.80;67.00
66524;BME280;53350;52.210;5.160;2022-08-25T21:34:02;101549.56;;;23.76;67.08
66524;BME280;53350;52.210;5.160;2022-08-25T21:36:30;101548.81;;;23.74;66.93
66524;BME280;53350;52.210;5.160;2022-08-25T21:38:57;101552.47;;;23.71;67.35
66524;BME280;53350;52.210;5.160;2022-08-25T21:41:26;101558.56;;;23.72;67.35
66524;BME280;53350;52.210;5.160;2022-08-25T21:43:53;101555.94;;;23.72;67.30
66524;BME280;53350;52.210;5.160;2022-08-25T21:46:24;101556.38;;;23.64;67.17
66524;BME280;53350;52.210;5.160;2022-08-25T21:48:51;101540.63;;;23.32;67.86
66524;BME280;53350;52.210;5.160;2022-08-25T21:51:22;101551.88;;;23.34;67.93
66524;BME280;53350;52.210;5.160;2022-08-25T21:53:50;101564.19;;;23.34;67.47
66524;BME280;53350;52.210;5.160;2022-08-25T21:56:34;101567.06;;;23.29;67.90
66524;BME280;53350;52.210;5.160;2022-08-25T21:59:00;101561.19;;;23.24;68.31
66524;BME280;53350;52.210;5.160;2022-08-25T22:01:26;101561.28;;;23.22;68.49
66524;BME280;53350;52.210;5.160;2022-08-25T22:03:53;101560.44;;;23.22;68.82
66524;BME280;53350;52.210;5.160;2022-08-25T22:06:21;101549.16;;;23.20;68.95
66524;BME280;53350;52.210;5.160;2022-08-25T22:08:47;101561.47;;;23.19;68.54
66524;BME280;53350;52.210;5.160;2022-08-25T22:11:15;101562.38;;;23.18;68.72
66524;BME280;53350;52.210;5.160;2022-08-25T22:13:42;101560.38;;;23.23;68.48
66524;BME280;53350;52.210;5.160;2022-08-25T22:16:10;101564.94;;;23.20;68.51
66524;BME280;53350;52.210;5.160;2022-08-25T22:18:37;101567.06;;;23.13;68.60
66524;BME280;53350;52.210;5.160;2022-08-25T22:21:04;101567.25;;;23.08;69.08
66524;BME280;53350;52.210;5.160;2022-08-25T22:23:31;101564.03;;;23.03;68.91
66524;BME280;53350;52.210;5.160;2022-08-25T22:25:58;101573.00;;;22.99;69.65
66524;BME280;53350;52.210;5.160;2022-08-25T22:28:25;101567.75;;;22.99;69.60
66524;BME280;53350;52.210;5.160;2022-08-25T22:30:52;101573.00;;;22.99;69.20
66524;BME280;53350;52.210;5.160;2022-08-25T22:33:18;101570.22;;;23.02;69.41
66524;BME280;53350;52.210;5.160;2022-08-25T22:35:45;101574.25;;;22.92;69.69
66524;BME280;53350;52.210;5.160;2022-08-25T22:38:12;101583.84;;;22.93;69.26
66524;BME280;53350;52.210;5.160;2022-08-25T22:40:40;101576.03;;;22.91;69.70
66524;BME280;53350;52.210;5.160;2022-08-25T22:43:06;101589.03;;;22.95;69.63
66524;BME280;53350;52.210;5.160;2022-08-25T22:45:33;101582.97;;;22.92;69.17
66524;BME280;53350;52.210;5.160;2022-08-25T22:48:00;101585.59;;;22.92;69.54
66524;BME280;53350;52.210;5.160;2022-08-25T22:50:26;101593.56;;;22.91;69.23
66524;BME280;53350;52.210;5.160;2022-08-25T22:52:53;101589.41;;;22.87;69.57
66524;BME280;53350;52.210;5.160;2022-08-25T22:55:19;101593.22;;;22.81;69.36
66524;BME280;53350;52.210;5.160;2022-08-25T22:57:47;101596.69;;;22.82;69.55
66524;BME280;53350;52.210;5.160;2022-08-25T23:00:15;101594.16;;;22.80;69.70
66524;BME280;53350;52.210;5.160;2022-08-25T23:02:42;101594.47;;;22.74;69.62
66524;BME280;53350;52.210;5.160;2022-08-25T23:05:10;101596.22;;;22.73;69.42
66524;BME280;53350;52.210;5.160;2022-08-25T23:07:38;101601.63;;;22.70;69.64
66524;BME280;53350;52.210;5.160;2022-08-25T23:10:07;101593.84;;;22.69;69.81
66524;BME280;53350;52.210;5.160;2022-08-25T23:12:36;101604.50;;;22.66;69.68
66524;BME280;53350;52.210;5.160;2022-08-25T23:15:07;101603.59;;;22.49;70.43
66524;BME280;53350;52.210;5.160;2022-08-25T23:17:33;101602.56;;;22.52;70.30
66524;BME280;53350;52.210;5.160;2022-08-25T23:20:02;101607.16;;;22.48;70.37
66524;BME280;53350;52.210;5.160;2022-08-25T23:22:49;101609.13;;;22.43;70.66
66524;BME280;53350;52.210;5.160;2022-08-25T23:25:15;101599.66;;;22.40;70.75
66524;BME280;53350;52.210;5.160;2022-08-25T23:27:42;101606.22;;;22.49;70.59
66524;BME280;53350;52.210;5.160;2022-08-25T23:30:11;101604.53;;;22.48;70.34
66524;BME280;53350;52.210;5.160;2022-08-25T23:32:38;101600.03;;;22.50;70.20
66524;BME280;53350;52.210;5.160;2022-08-25T23:35:05;101602.72;;;22.49;70.54
66524;BME280;53350;52.210;5.160;2022-08-25T23:37:31;101601.81;;;22.50;70.52
66524;BME280;53350;52.210;5.160;2022-08-25T23:39:58;101600.09;;;22.49;70.30
66524;BME280;53350;52.210;5.160;2022-08-25T23:42:25;101599.19;;;22.50;70.44
66524;BME280;53350;52.210;5.160;2022-08-25T23:44:51;101595.78;;;22.48;70.27
66524;BME280;53350;52.210;5.160;2022-08-25T23:47:19;101596.81;;;22.45;70.24
66524;BME280;53350;52.210;5.160;2022-08-25T23:49:45;101591.56;;;22.45;70.69
66524;BME280;53350;52.210;5.160;2022-08-25T23:52:13;101595.84;;;22.46;70.39
66524;BME280;53350;52.210;5.160;2022-08-25T23:54:41;101596.25;;;22.38;71.22
66524;BME280;53350;52.210;5.160;2022-08-25T23:57:08;101600.50;;;22.41;70.70
66524;BME280;53350;52.210;5.160;2022-08-25T23:59:34;101597.16;;;22.37;71.10
